createdAt,value
2022-11-24T00:08:26.303Z,84.5
2022-11-24T00:28:26.274Z,84.8
2022-11-24T00:48:26.235Z,85.2
2022-11-24T01:08:26.227Z,85.1
2022-11-24T01:48:27.394Z,83.8
2022-11-24T02:08:26.142Z,84.1
2022-11-24T02:28:26.165Z,83.9
2022-11-24T02:48:26.075Z,83.5
2022-11-24T03:48:25.993Z,83.9
2022-11-24T04:08:25.990Z,84
2022-11-24T04:28:26.017Z,83.7
2022-11-24T04:48:25.929Z,84.2
2022-11-24T05:08:25.892Z,88
2022-11-24T05:28:25.858Z,86.7
2022-11-24T05:48:25.838Z,85.6
2022-11-24T06:08:30.788Z,84.2
2022-11-24T06:28:25.785Z,84
2022-11-24T07:08:25.717Z,82.8
2022-11-24T07:28:25.688Z,81.5
2022-11-24T08:48:25.631Z,80.9
2022-11-24T09:09:29.582Z,80.4
2022-11-24T09:28:25.540Z,82.3
2022-11-24T09:48:25.518Z,83.4
2022-11-24T10:08:25.522Z,83.5
2022-11-24T10:28:25.455Z,82.2
2022-11-24T10:48:25.482Z,83.6
2022-11-24T11:48:25.343Z,78.7
2022-11-24T12:08:25.329Z,77.6
2022-11-24T12:28:25.290Z,74.1
2022-11-24T12:48:25.302Z,75.2
2022-11-24T13:08:25.226Z,72
2022-11-24T13:28:46.486Z,69.9
2022-11-24T14:28:25.133Z,71.2
2022-11-24T14:48:25.074Z,72.2
2022-11-24T15:08:25.052Z,75
2022-11-24T15:28:25.026Z,77.8
2022-11-24T15:48:25.074Z,82.1
2022-11-24T16:08:24.969Z,84.5
2022-11-24T17:48:24.865Z,84.9
2022-11-24T18:28:24.784Z,81.9
2022-11-24T19:28:24.705Z,81.2
2022-11-24T19:48:24.683Z,80.8
2022-11-24T20:08:24.647Z,80.7
2022-11-24T20:28:24.627Z,80.9
2022-11-24T20:48:24.601Z,81.3
2022-11-24T21:08:24.581Z,81.7
2022-11-24T21:28:24.556Z,81.7
2022-11-24T21:48:24.547Z,81.6
2022-11-24T22:08:24.505Z,81.8
2022-11-24T22:28:24.481Z,82.3
2022-11-24T23:08:24.423Z,83.7
2022-11-24T23:48:24.369Z,83.3
